Wetterstation Vordersexau
Wetterdaten: Woche 08.08.11 - 14.08.11 (KW32)
Datum Zeit Temp. A. Feuchte A. Luftdruck Regen Wind Richtung Taupunkt Windchill Windben
08.08.2011 00:00 12,4 C 84 % 1008,0 hPa 0,0 l/m 0,0 km/h O-NO 9,8 C 12,4 C 0,0 km/h
08.08.2011 01:00 12,3 C 83 % 1007,6 hPa 0,0 l/m 0,0 km/h SO 9,5 C 12,3 C 0,0 km/h
08.08.2011 02:00 12,9 C 82 % 1007,2 hPa 0,0 l/m 2,6 km/h O-NO 9,9 C 12,9 C 1,4 km/h
08.08.2011 03:00 13,1 C 84 % 1007,0 hPa 0,0 l/m 0,0 km/h NO 10,5 C 13,1 C 0,0 km/h
08.08.2011 04:00 12,6 C 83 % 1006,9 hPa 0,4 l/m 0,0 km/h O-SO 9,8 C 12,6 C 0,0 km/h
08.08.2011 05:00 12,2 C 84 % 1006,8 hPa 0,0 l/m 0,0 km/h SW 9,6 C 12,2 C 0,0 km/h
08.08.2011 06:00 14,1 C 86 % 1007,1 hPa 0,0 l/m 6,5 km/h S-SW 11,8 C 14,1 C 3,6 km/h
08.08.2011 07:00 16,4 C 79 % 1007,3 hPa 0,0 l/m 30,5 km/h W 12,7 C 9,6 C 16,9 km/h
08.08.2011 08:00 17,4 C 72 % 1007,8 hPa 0,0 l/m 24,0 km/h S-SW 12,3 C 12,0 C 13,3 km/h
08.08.2011 09:00 18,2 C 72 % 1008,4 hPa 0,0 l/m 22,7 km/h S 13,1 C 13,3 C 12,6 km/h
08.08.2011 10:00 21,9 C 55 % 1008,5 hPa 0,0 l/m 63,5 km/h W-SW 12,4 C 15,5 C 35,3 km/h
08.08.2011 11:00 18,8 C 70 % 1009,0 hPa 0,0 l/m 14,9 km/h W-SW 13,2 C 15,8 C 8,3 km/h
08.08.2011 12:00 21,9 C 55 % 1009,4 hPa 0,0 l/m 20,7 km/h W 12,4 C 18,6 C 11,5 km/h
08.08.2011 13:00 22,4 C 49 % 1009,8 hPa 0,0 l/m 22,7 km/h NW 11,2 C 18,9 C 12,6 km/h
08.08.2011 14:00 18,9 C 60 % 1011,1 hPa 0,0 l/m 7,8 km/h S-SW 11,0 C 18,3 C 4,3 km/h
08.08.2011 15:00 13,5 C 80 % 1012,0 hPa 0,7 l/m 5,8 km/h O-NO 10,1 C 13,5 C 3,2 km/h
08.08.2011 16:00 16,4 C 77 % 1012,4 hPa 0,0 l/m 0,0 km/h W-SW 12,4 C 16,4 C 0,0 km/h
08.08.2011 17:00 14,5 C 79 % 1013,6 hPa 0,0 l/m 8,4 km/h SW 10,9 C 13,4 C 4,7 km/h
08.08.2011 18:00 16,5 C 77 % 1013,9 hPa 0,7 l/m 7,8 km/h W-SW 12,5 C 15,8 C 4,3 km/h
08.08.2011 19:00 18,1 C 70 % 1014,1 hPa 0,0 l/m 12,3 km/h W-SW 12,5 C 15,7 C 6,8 km/h
08.08.2011 20:00 15,3 C 76 % 1014,6 hPa 0,0 l/m 2,6 km/h W-NW 11,1 C 15,3 C 1,4 km/h
08.08.2011 21:00 14,4 C 81 % 1015,6 hPa 0,0 l/m 0,0 km/h N-NO 11,2 C 14,4 C 0,0 km/h
08.08.2011 22:00 13,1 C 85 % 1016,0 hPa 0,0 l/m 0,0 km/h W 10,6 C 13,1 C 0,0 km/h
08.08.2011 23:00 13,9 C 84 % 1016,8 hPa 0,0 l/m 0,0 km/h W-NW 11,2 C 13,9 C 0,0 km/h
09.08.2011 00:00 14,1 C 81 % 1016,7 hPa 0,0 l/m 0,0 km/h NO 10,9 C 14,1 C 0,0 km/h
09.08.2011 01:00 12,4 C 85 % 1016,7 hPa 0,0 l/m 0,0 km/h N-NO 9,9 C 12,4 C 0,0 km/h
09.08.2011 02:00 12,5 C 85 % 1016,6 hPa 0,0 l/m 0,0 km/h W-SW 10,0 C 12,5 C 0,0 km/h
09.08.2011 03:00 14,2 C 82 % 1016,9 hPa 0,0 l/m 1,3 km/h W-SW 11,2 C 14,2 C 0,7 km/h
09.08.2011 04:00 14,1 C 81 % 1017,2 hPa 0,0 l/m 7,1 km/h SW 10,9 C 13,7 C 4,0 km/h
09.08.2011 05:00 13,9 C 82 % 1017,4 hPa 0,0 l/m 22,0 km/h W-SW 10,9 C 7,8 C 12,2 km/h
09.08.2011 06:00 13,4 C 83 % 1017,7 hPa 0,0 l/m 22,7 km/h SW 10,6 C 7,0 C 12,6 km/h
09.08.2011 07:00 13,2 C 85 % 1017,9 hPa 0,4 l/m 30,5 km/h W 10,7 C 5,1 C 16,9 km/h
09.08.2011 08:00 14,4 C 81 % 1018,2 hPa 0,0 l/m 18,8 km/h S-SW 11,2 C 9,3 C 10,4 km/h
09.08.2011 09:00 19,1 C 70 % 1018,6 hPa 0,0 l/m 25,9 km/h W-SW 13,5 C 14,0 C 14,4 km/h
09.08.2011 10:00 18,3 C 64 % 1018,6 hPa 0,0 l/m 20,1 km/h W 11,4 C 14,0 C 11,2 km/h
09.08.2011 11:00 19,3 C 63 % 1018,8 hPa 0,0 l/m 9,7 km/h W 12,1 C 18,0 C 5,4 km/h
09.08.2011 12:00 18,1 C 63 % 1019,3 hPa 0,0 l/m 18,1 km/h S-SW 10,9 C 14,2 C 10,1 km/h
09.08.2011 13:00 20,2 C 61 % 1019,3 hPa 0,0 l/m 12,3 km/h SW 12,4 C 18,2 C 6,8 km/h
09.08.2011 14:00 18,6 C 61 % 1019,1 hPa 0,0 l/m 23,3 km/h SW 10,9 C 13,8 C 13,0 km/h
09.08.2011 15:00 18,1 C 63 % 1019,2 hPa 0,0 l/m 11,0 km/h N-NO 10,9 C 16,2 C 6,1 km/h
09.08.2011 16:00 15,4 C 78 % 1019,7 hPa 0,7 l/m 0,0 km/h W 11,6 C 15,4 C 0,0 km/h
09.08.2011 17:00 15,4 C 81 % 1020,2 hPa 1,1 l/m 0,0 km/h S-SO 12,2 C 15,4 C 0,0 km/h
09.08.2011 18:00 16,5 C 81 % 1020,2 hPa 0,0 l/m 7,8 km/h S-SW 13,2 C 15,8 C 4,3 km/h
09.08.2011 19:00 16,1 C 78 % 1020,5 hPa 0,0 l/m 0,0 km/h S-SO 12,3 C 16,1 C 0,0 km/h
09.08.2011 20:00 14,5 C 84 % 1021,2 hPa 1,8 l/m 3,2 km/h NO 11,8 C 14,5 C 1,8 km/h
09.08.2011 21:00 12,7 C 85 % 1022,2 hPa 0,0 l/m 0,0 km/h O-SO 10,2 C 12,7 C 0,0 km/h
09.08.2011 22:00 11,9 C 84 % 1022,9 hPa 0,0 l/m 0,0 km/h O-NO 9,3 C 11,9 C 0,0 km/h
09.08.2011 23:00 12,3 C 84 % 1023,6 hPa 0,0 l/m 0,0 km/h S-SO 9,7 C 12,3 C 0,0 km/h
10.08.2011 00:00 12,1 C 84 % 1024,1 hPa 0,0 l/m 1,3 km/h O-SO 9,5 C 12,1 C 0,7 km/h
10.08.2011 01:00 12,2 C 84 % 1024,4 hPa 0,0 l/m 0,0 km/h O-SO 9,6 C 12,2 C 0,0 km/h
10.08.2011 02:00 11,1 C 84 % 1024,4 hPa 0,0 l/m 0,0 km/h O-NO 8,5 C 11,1 C 0,0 km/h
10.08.2011 03:00 11,4 C 83 % 1024,6 hPa 0,0 l/m 0,0 km/h O-NO 8,6 C 11,4 C 0,0 km/h
10.08.2011 04:00 10,9 C 84 % 1024,6 hPa 0,0 l/m 0,0 km/h O-NO 8,3 C 10,9 C 0,0 km/h
10.08.2011 05:00 10,1 C 84 % 1024,8 hPa 0,0 l/m 0,0 km/h O 7,5 C 10,1 C 0,0 km/h
10.08.2011 06:00 10,4 C 83 % 1024,9 hPa 0,0 l/m 0,0 km/h S-SO 7,6 C 10,4 C 0,0 km/h
10.08.2011 07:00 11,2 C 82 % 1025,1 hPa 0,0 l/m 1,9 km/h NO 8,2 C 11,2 C 1,1 km/h
10.08.2011 08:00 18,9 C 79 % 1025,3 hPa 0,0 l/m 0,0 km/h O-NO 15,2 C 18,9 C 0,0 km/h
10.08.2011 09:00 20,7 C 64 % 1025,6 hPa 0,0 l/m 0,0 km/h N 13,6 C 20,7 C 0,0 km/h
10.08.2011 10:00 21,4 C 56 % 1025,4 hPa 0,0 l/m 3,9 km/h W-SW 12,3 C 21,4 C 2,2 km/h
10.08.2011 11:00 21,6 C 48 % 1025,5 hPa 0,0 l/m 0,0 km/h SO 10,1 C 21,6 C 0,0 km/h
10.08.2011 12:00 21,6 C 44 % 1025,3 hPa 0,0 l/m 0,0 km/h N 8,8 C 21,6 C 0,0 km/h
10.08.2011 13:00 21,6 C 43 % 1024,9 hPa 0,0 l/m 0,0 km/h W-NW 8,5 C 21,6 C 0,0 km/h
10.08.2011 14:00 22,1 C 43 % 1024,6 hPa 0,0 l/m 0,0 km/h W-SW 8,9 C 22,1 C 0,0 km/h
10.08.2011 15:00 25,4 C 38 % 1023,9 hPa 0,0 l/m 8,4 km/h W-NW 10,0 C 24,9 C 4,7 km/h
10.08.2011 16:00 27,8 C 34 % 1023,0 hPa 0,0 l/m 0,0 km/h SO 10,5 C 27,8 C 0,0 km/h
10.08.2011 17:00 29,3 C 32 % 1022,2 hPa 0,0 l/m 0,0 km/h S-SO 10,9 C 29,3 C 0,0 km/h
10.08.2011 18:00 30,3 C 28 % 1021,7 hPa 0,0 l/m 0,0 km/h N-NO 9,7 C 30,3 C 0,0 km/h
10.08.2011 19:00 26,3 C 32 % 1021,1 hPa 0,0 l/m 0,0 km/h N-NO 8,3 C 26,3 C 0,0 km/h
10.08.2011 20:00 16,6 C 57 % 1020,9 hPa 0,0 l/m 0,0 km/h O-NO 8,0 C 16,6 C 0,0 km/h
10.08.2011 21:00 12,8 C 72 % 1020,9 hPa 0,0 l/m 0,0 km/h O-SO 7,9 C 12,8 C 0,0 km/h
10.08.2011 22:00 11,5 C 77 % 1021,3 hPa 0,0 l/m 0,0 km/h SO 7,6 C 11,5 C 0,0 km/h
10.08.2011 23:00 11,0 C 81 % 1021,1 hPa 0,0 l/m 0,0 km/h SO 7,9 C 11,0 C 0,0 km/h
11.08.2011 00:00 9,9 C 83 % 1021,1 hPa 0,0 l/m 0,0 km/h SO 7,2 C 9,9 C 0,0 km/h
11.08.2011 01:00 9,2 C 84 % 1020,5 hPa 0,0 l/m 0,0 km/h SO 6,6 C 9,2 C 0,0 km/h
11.08.2011 02:00 8,8 C 85 % 1020,4 hPa 0,0 l/m 0,0 km/h SO 6,4 C 8,8 C 0,0 km/h
11.08.2011 03:00 8,3 C 85 % 1019,7 hPa 0,0 l/m 3,2 km/h O-NO 5,9 C 8,3 C 1,8 km/h
11.08.2011 04:00 8,1 C 85 % 1019,2 hPa 0,0 l/m 0,0 km/h O-SO 5,7 C 8,1 C 0,0 km/h
11.08.2011 05:00 7,8 C 86 % 1019,1 hPa 0,0 l/m 0,0 km/h SO 5,6 C 7,8 C 0,0 km/h
11.08.2011 06:00 7,6 C 85 % 1018,6 hPa 0,0 l/m 0,0 km/h O 5,2 C 7,6 C 0,0 km/h
11.08.2011 07:00 9,4 C 84 % 1018,6 hPa 0,0 l/m 0,0 km/h S-SO 6,8 C 9,4 C 0,0 km/h
11.08.2011 08:00 15,8 C 74 % 1018,3 hPa 0,0 l/m 0,0 km/h S 11,2 C 15,8 C 0,0 km/h
11.08.2011 09:00 21,4 C 60 % 1017,9 hPa 0,0 l/m 0,0 km/h W 13,3 C 21,4 C 0,0 km/h
11.08.2011 10:00 27,8 C 41 % 1017,6 hPa 0,0 l/m 0,0 km/h W 13,3 C 27,8 C 0,0 km/h
11.08.2011 11:00 25,6 C 44 % 1017,5 hPa 0,0 l/m 7,1 km/h W 12,4 C 25,4 C 4,0 km/h
11.08.2011 12:00 26,4 C 42 % 1017,0 hPa 0,0 l/m 11,0 km/h S-SW 12,4 C 25,5 C 6,1 km/h
11.08.2011 13:00 27,5 C 38 % 1016,2 hPa 0,0 l/m 1,3 km/h W 11,9 C 27,5 C 0,7 km/h
11.08.2011 14:00 26,1 C 38 % 1015,5 hPa 0,0 l/m 6,5 km/h W-SW 10,7 C 26,1 C 3,6 km/h
11.08.2011 15:00 29,0 C 34 % 1014,8 hPa 0,0 l/m 0,0 km/h S-SW 11,5 C 29,0 C 0,0 km/h
11.08.2011 16:00 32,4 C 29 % 1014,5 hPa 0,0 l/m 0,0 km/h W 12,1 C 32,4 C 0,0 km/h
11.08.2011 17:00 33,2 C 26 % 1013,7 hPa 0,0 l/m 0,0 km/h W 11,1 C 33,2 C 0,0 km/h
11.08.2011 18:00 27,9 C 31 % 1013,5 hPa 0,0 l/m 0,0 km/h SO 9,2 C 27,9 C 0,0 km/h
11.08.2011 19:00 22,6 C 47 % 1013,2 hPa 0,0 l/m 0,0 km/h O-NO 10,7 C 22,6 C 0,0 km/h
11.08.2011 20:00 20,1 C 56 % 1013,0 hPa 0,0 l/m 0,0 km/h NO 11,0 C 20,1 C 0,0 km/h
11.08.2011 21:00 17,4 C 65 % 1013,4 hPa 0,0 l/m 0,0 km/h NO 10,8 C 17,4 C 0,0 km/h
11.08.2011 22:00 17,1 C 68 % 1013,8 hPa 0,0 l/m 0,0 km/h SO 11,1 C 17,1 C 0,0 km/h
11.08.2011 23:00 15,6 C 72 % 1013,5 hPa 0,0 l/m 0,0 km/h NO 10,6 C 15,6 C 0,0 km/h
12.08.2011 00:00 13,5 C 76 % 1013,9 hPa 0,0 l/m 0,0 km/h NO 9,4 C 13,5 C 0,0 km/h
12.08.2011 01:00 12,9 C 79 % 1013,6 hPa 0,0 l/m 0,0 km/h O-NO 9,3 C 12,9 C 0,0 km/h
12.08.2011 02:00 12,3 C 80 % 1013,5 hPa 0,0 l/m 0,0 km/h SO 8,9 C 12,3 C 0,0 km/h
12.08.2011 03:00 11,6 C 82 % 1013,5 hPa 0,0 l/m 0,0 km/h O-NO 8,6 C 11,6 C 0,0 km/h
12.08.2011 04:00 11,4 C 83 % 1013,3 hPa 0,0 l/m 0,0 km/h SO 8,6 C 11,4 C 0,0 km/h
12.08.2011 05:00 11,3 C 84 % 1013,1 hPa 0,0 l/m 0,0 km/h S-SO 8,7 C 11,3 C 0,0 km/h
12.08.2011 06:00 11,2 C 84 % 1013,0 hPa 0,0 l/m 5,2 km/h SO 8,6 C 11,2 C 2,9 km/h
12.08.2011 07:00 12,9 C 83 % 1012,8 hPa 0,0 l/m 0,0 km/h SO 10,1 C 12,9 C 0,0 km/h
12.08.2011 08:00 17,1 C 75 % 1012,7 hPa 0,0 l/m 0,0 km/h W-SW 12,6 C 17,1 C 0,0 km/h
12.08.2011 09:00 21,9 C 61 % 1012,8 hPa 0,0 l/m 22,7 km/h S-SW 14,0 C 18,3 C 12,6 km/h
12.08.2011 10:00 21,9 C 58 % 1012,8 hPa 0,0 l/m 18,8 km/h S-SW 13,3 C 18,9 C 10,4 km/h
12.08.2011 11:00 24,3 C 49 % 1012,6 hPa 0,0 l/m 23,3 km/h W-SW 12,9 C 21,4 C 13,0 km/h
12.08.2011 12:00 25,3 C 52 % 1012,3 hPa 0,0 l/m 22,0 km/h SW 14,7 C 22,8 C 12,2 km/h
12.08.2011 13:00 27,3 C 46 % 1011,8 hPa 0,0 l/m 25,9 km/h SW 14,6 C 25,2 C 14,4 km/h
12.08.2011 14:00 25,5 C 48 % 1011,5 hPa 0,0 l/m 8,4 km/h W-SW 13,7 C 25,0 C 4,7 km/h
12.08.2011 15:00 28,9 C 40 % 1011,1 hPa 0,0 l/m 29,8 km/h SW 13,9 C 27,2 C 16,6 km/h
12.08.2011 16:00 25,9 C 42 % 1010,9 hPa 0,0 l/m 18,8 km/h W-SW 12,0 C 24,0 C 10,4 km/h
12.08.2011 17:00 24,1 C 48 % 1010,9 hPa 0,0 l/m 29,2 km/h W-SW 12,4 C 20,6 C 16,2 km/h
12.08.2011 18:00 22,2 C 57 % 1011,6 hPa 0,0 l/m 20,1 km/h W-SW 13,3 C 19,0 C 11,2 km/h
12.08.2011 19:00 20,7 C 64 % 1011,9 hPa 0,0 l/m 18,8 km/h SO 13,6 C 17,3 C 10,4 km/h
12.08.2011 20:00 19,2 C 68 % 1011,5 hPa 0,0 l/m 0,0 km/h S 13,1 C 19,2 C 0,0 km/h
12.08.2011 21:00 17,3 C 77 % 1012,7 hPa 0,0 l/m 7,8 km/h SO 13,2 C 16,6 C 4,3 km/h
12.08.2011 22:00 16,2 C 83 % 1012,5 hPa 0,0 l/m 0,0 km/h SO 13,3 C 16,2 C 0,0 km/h
12.08.2011 23:00 16,7 C 84 % 1012,3 hPa 0,0 l/m 0,0 km/h S-SO 14,0 C 16,7 C 0,0 km/h
13.08.2011 00:00 17,1 C 84 % 1012,5 hPa 0,0 l/m 2,6 km/h S-SO 14,4 C 17,1 C 1,4 km/h
13.08.2011 01:00 16,9 C 84 % 1012,6 hPa 0,0 l/m 0,0 km/h O-NO 14,2 C 16,9 C 0,0 km/h
13.08.2011 02:00 16,4 C 84 % 1012,3 hPa 0,0 l/m 0,0 km/h O-SO 13,7 C 16,4 C 0,0 km/h
13.08.2011 03:00 16,1 C 85 % 1011,9 hPa 0,0 l/m 0,0 km/h NO 13,6 C 16,1 C 0,0 km/h
13.08.2011 04:00 16,1 C 84 % 1011,7 hPa 0,0 l/m 0,0 km/h N-NO 13,4 C 16,1 C 0,0 km/h
13.08.2011 05:00 16,2 C 85 % 1011,9 hPa 0,0 l/m 0,0 km/h O 13,7 C 16,2 C 0,0 km/h
13.08.2011 06:00 15,3 C 84 % 1011,5 hPa 0,0 l/m 0,0 km/h O 12,6 C 15,3 C 0,0 km/h
13.08.2011 07:00 15,4 C 84 % 1011,5 hPa 0,0 l/m 0,0 km/h O-SO 12,7 C 15,4 C 0,0 km/h
13.08.2011 08:00 21,5 C 77 % 1011,2 hPa 0,0 l/m 0,0 km/h S-SW 17,3 C 21,5 C 0,0 km/h
13.08.2011 09:00 23,3 C 72 % 1011,2 hPa 0,0 l/m 22,7 km/h W-SW 18,0 C 20,1 C 12,6 km/h
13.08.2011 10:00 20,9 C 73 % 1011,2 hPa 0,0 l/m 13,0 km/h W-SW 15,9 C 18,8 C 7,2 km/h
13.08.2011 11:00 22,2 C 71 % 1011,2 hPa 0,0 l/m 2,6 km/h S-SW 16,7 C 22,2 C 1,4 km/h
13.08.2011 12:00 26,3 C 62 % 1010,5 hPa 0,0 l/m 13,6 km/h W-SW 18,4 C 25,1 C 7,6 km/h
13.08.2011 13:00 26,4 C 57 % 1010,2 hPa 0,0 l/m 6,5 km/h W 17,2 C 26,4 C 3,6 km/h
13.08.2011 14:00 28,4 C 53 % 1010,4 hPa 0,0 l/m 21,4 km/h S 17,9 C 27,0 C 11,9 km/h
13.08.2011 15:00 29,1 C 50 % 1009,5 hPa 0,0 l/m 10,4 km/h W-SW 17,6 C 28,7 C 5,8 km/h
13.08.2011 16:00 28,3 C 48 % 1009,2 hPa 0,0 l/m 3,9 km/h SW 16,2 C 28,3 C 2,2 km/h
13.08.2011 17:00 32,2 C 43 % 1008,8 hPa 0,0 l/m 0,0 km/h SW 18,0 C 32,2 C 0,0 km/h
13.08.2011 18:00 27,4 C 51 % 1008,7 hPa 0,0 l/m 1,3 km/h SW 16,3 C 27,4 C 0,7 km/h
13.08.2011 19:00 26,1 C 56 % 1008,6 hPa 0,0 l/m 1,9 km/h W-SW 16,6 C 26,1 C 1,1 km/h
13.08.2011 20:00 22,2 C 64 % 1008,7 hPa 0,0 l/m 0,0 km/h O-NO 15,1 C 22,2 C 0,0 km/h
13.08.2011 21:00 19,3 C 75 % 1008,7 hPa 0,0 l/m 0,0 km/h SO 14,8 C 19,3 C 0,0 km/h
13.08.2011 22:00 17,6 C 80 % 1009,2 hPa 0,0 l/m 0,6 km/h O-NO 14,1 C 17,6 C 0,4 km/h
13.08.2011 23:00 16,9 C 82 % 1009,1 hPa 0,0 l/m 0,0 km/h O-NO 13,8 C 16,9 C 0,0 km/h
14.08.2011 00:00 16,6 C 83 % 1009,1 hPa 0,0 l/m 0,0 km/h O-NO 13,7 C 16,6 C 0,0 km/h
14.08.2011 01:00 15,7 C 84 % 1008,8 hPa 0,0 l/m 0,0 km/h O-NO 13,0 C 15,7 C 0,0 km/h
14.08.2011 02:00 15,3 C 84 % 1008,2 hPa 0,0 l/m 0,0 km/h SO 12,6 C 15,3 C 0,0 km/h
14.08.2011 03:00 14,6 C 84 % 1008,1 hPa 0,0 l/m 0,0 km/h O 11,9 C 14,6 C 0,0 km/h
14.08.2011 04:00 14,7 C 84 % 1007,7 hPa 0,0 l/m 0,0 km/h O-NO 12,0 C 14,7 C 0,0 km/h
14.08.2011 05:00 14,9 C 84 % 1007,1 hPa 0,0 l/m 0,0 km/h SO 12,2 C 14,9 C 0,0 km/h
14.08.2011 06:00 14,3 C 84 % 1007,0 hPa 0,0 l/m 0,0 km/h SO 11,6 C 14,3 C 0,0 km/h
14.08.2011 07:00 15,0 C 84 % 1006,8 hPa 0,0 l/m 0,0 km/h SO 12,3 C 15,0 C 0,0 km/h
14.08.2011 08:00 21,8 C 76 % 1006,6 hPa 0,0 l/m 0,0 km/h W 17,4 C 21,8 C 0,0 km/h
14.08.2011 09:00 22,5 C 70 % 1006,6 hPa 0,0 l/m 0,0 km/h S-SW 16,7 C 22,5 C 0,0 km/h
14.08.2011 10:00 25,7 C 64 % 1006,7 hPa 0,0 l/m 0,0 km/h W 18,4 C 25,7 C 0,0 km/h
14.08.2011 11:00 30,1 C 56 % 1006,6 hPa 0,0 l/m 0,0 km/h SW 20,3 C 30,1 C 0,0 km/h
14.08.2011 12:00 29,5 C 48 % 1006,9 hPa 0,0 l/m 33,7 km/h W 17,3 C 28,0 C 18,7 km/h
14.08.2011 13:00 29,6 C 50 % 1007,0 hPa 0,0 l/m 33,7 km/h W-SW 18,1 C 28,1 C 18,7 km/h
14.08.2011 14:00 27,9 C 53 % 1007,4 hPa 0,0 l/m 25,3 km/h W-NW 17,4 C 26,1 C 14,0 km/h
14.08.2011 15:00 25,9 C 58 % 1007,9 hPa 0,0 l/m 25,3 km/h W-NW 17,0 C 23,4 C 14,0 km/h
14.08.2011 16:00 24,3 C 64 % 1008,4 hPa 0,0 l/m 1,9 km/h SW 17,0 C 24,3 C 1,1 km/h
14.08.2011 17:00 23,3 C 68 % 1008,7 hPa 0,0 l/m 18,1 km/h S-SW 17,1 C 20,7 C 10,1 km/h
14.08.2011 18:00 20,9 C 75 % 1009,0 hPa 0,0 l/m 8,4 km/h SO 16,3 C 20,2 C 4,7 km/h
14.08.2011 19:00 18,6 C 83 % 1009,3 hPa 0,0 l/m 10,4 km/h NO 15,7 C 17,0 C 5,8 km/h
14.08.2011 20:00 18,3 C 84 % 1009,6 hPa 0,0 l/m 0,0 km/h SO 15,5 C 18,3 C 0,0 km/h
14.08.2011 21:00 17,8 C 84 % 1009,6 hPa 0,0 l/m 0,0 km/h NO 15,1 C 17,8 C 0,0 km/h
14.08.2011 22:00 17,4 C 84 % 1009,5 hPa 0,0 l/m 0,0 km/h N-NO 14,7 C 17,4 C 0,0 km/h
14.08.2011 23:00 16,9 C 83 % 1010,0 hPa 0,0 l/m 0,0 km/h NO 14,0 C 16,9 C 0,0 km/h
Min-Datum _ 11.08.11 11.08.11 14.08.11 - 08.08.11 - 11.08.11 09.08.11 08.08.11
_ Min-Zeit 06:30 17:30 08:30 - 00:30 - 06:30 07:30 00:30
Minimum _ 7,6 C 26 % 1006,6 hPa - 0,0 km/h - 5,2 C 5,1 C 0,0 km/h
Max-Datum _ 11.08.11 08.08.11 10.08.11 09.08.11 08.08.11 - 14.08.11 11.08.11 08.08.11
_ Max-Zeit 17:30 06:30 09:30 20:30 10:30 - 11:30 17:30 10:30
Maximum _ 33,2 C 86 % 1025,6 hPa 1,8 l/m 63,5 km/h
W-SW
- 20,3 C 33,2 C 35,3 km/h
W-SW
Durchschnitt _ 18,4 C 69 % 1014,4 hPa #5,7 l/m 6,2 km/h SO 12,1 C 17,6 C 3,4 km/h
www.sexauwetter.de